Time;durP1;ratioP1;P1;durP2;ratioP2;P2;SDS_P1;SDS_P2;PMS_P1;PMS_P2;Temp;Humidity;BMP_temperature;BMP_pressure;BME280_temperature;BME280_humidity;BME280_pressure;Samples;Min_cycle;Max_cycle;Signal;HPM_P1;HPM_P2
2020/12/04 00:03:54;;;;;;;30.42;15.80;;;0.20;99.90;;;;;;5060192;28;20072;-55
2020/12/04 00:06:19;;;;;;;31.08;15.52;;;0.20;99.90;;;;;;5081085;28;20067;-60
2020/12/04 00:08:45;;;;;;;34.25;16.27;;;0.20;99.90;;;;;;5074264;28;20040;-55
2020/12/04 00:11:10;;;;;;;29.98;15.32;;;0.20;99.90;;;;;;5081971;28;20064;-59
2020/12/04 00:13:36;;;;;;;31.08;15.27;;;0.20;99.90;;;;;;5071590;28;20115;-54
2020/12/04 00:16:01;;;;;;;33.15;15.57;;;0.10;99.90;;;;;;5067212;28;20041;-56
2020/12/04 00:18:27;;;;;;;35.83;16.73;;;0.20;99.90;;;;;;5067598;28;20419;-55
2020/12/04 00:20:53;;;;;;;33.13;15.75;;;0.20;99.90;;;;;;5068664;28;20059;-56
2020/12/04 00:23:18;;;;;;;32.33;16.38;;;0.20;99.90;;;;;;5064562;28;20452;-55
2020/12/04 00:25:43;;;;;;;31.88;16.20;;;0.20;99.90;;;;;;5048312;28;20404;-61
2020/12/04 00:28:09;;;;;;;32.20;16.00;;;0.10;99.90;;;;;;5046912;28;20040;-53
2020/12/04 00:30:35;;;;;;;30.00;16.02;;;0.10;99.90;;;;;;5048106;28;20083;-54
2020/12/04 00:33:00;;;;;;;32.53;16.45;;;0.10;99.90;;;;;;5049287;28;20666;-54
2020/12/04 00:35:26;;;;;;;29.08;14.98;;;0.10;99.90;;;;;;5048367;28;20037;-56
2020/12/04 00:37:51;;;;;;;32.22;16.25;;;0.10;99.90;;;;;;5048118;28;20416;-56
2020/12/04 00:40:17;;;;;;;32.03;15.93;;;0.20;99.90;;;;;;5067743;28;20089;-56
2020/12/04 00:42:46;;;;;;;35.33;16.67;;;0.20;99.90;;;;;;5067252;28;20507;-54
2020/12/04 00:45:12;;;;;;;33.78;16.75;;;0.20;99.90;;;;;;5067924;28;20051;-50
2020/12/04 00:47:38;;;;;;;36.88;17.15;;;0.20;99.90;;;;;;5049227;28;20493;-61
2020/12/04 00:50:03;;;;;;;36.47;17.73;;;0.20;99.90;;;;;;5048224;28;20199;-54
2020/12/04 00:52:29;;;;;;;36.15;18.63;;;0.20;99.90;;;;;;5067175;28;20189;-59
2020/12/04 00:54:55;;;;;;;33.53;17.10;;;0.20;99.90;;;;;;5067423;28;20040;-55
2020/12/04 00:57:20;;;;;;;37.90;17.90;;;0.20;99.90;;;;;;5067380;28;20049;-56
2020/12/04 00:59:46;;;;;;;35.65;17.52;;;0.20;99.90;;;;;;5055969;28;20116;-60
2020/12/04 01:02:11;;;;;;;31.77;16.02;;;0.20;99.90;;;;;;5047325;28;20044;-53
2020/12/04 01:04:37;;;;;;;37.83;17.40;;;0.20;99.90;;;;;;5047556;28;20068;-57
2020/12/04 01:07:06;;;;;;;33.08;16.23;;;0.30;99.90;;;;;;5049255;28;20033;-58
2020/12/04 01:09:32;;;;;;;34.72;17.83;;;0.20;99.90;;;;;;5047179;28;20095;-55
2020/12/04 01:11:58;;;;;;;33.20;16.48;;;0.20;99.90;;;;;;5048099;28;20045;-50
2020/12/04 01:14:23;;;;;;;33.67;17.70;;;0.20;99.90;;;;;;5051990;28;20045;-60
2020/12/04 01:16:49;;;;;;;31.23;15.80;;;0.20;99.90;;;;;;5067123;28;20048;-59
2020/12/04 01:19:15;;;;;;;30.77;16.25;;;0.20;99.90;;;;;;5068258;28;20066;-59
2020/12/04 01:21:40;;;;;;;33.25;16.08;;;0.20;99.90;;;;;;5068279;28;20043;-59
2020/12/04 01:24:06;;;;;;;35.08;16.27;;;0.30;99.90;;;;;;5064872;28;20412;-61
2020/12/04 01:26:31;;;;;;;33.25;16.85;;;0.30;99.90;;;;;;5047657;28;20504;-57
2020/12/04 01:28:57;;;;;;;34.00;16.83;;;0.30;99.90;;;;;;5048322;28;20052;-60
2020/12/04 01:31:22;;;;;;;29.80;15.88;;;0.30;99.90;;;;;;5052225;28;20037;-58
2020/12/04 01:33:48;;;;;;;34.97;16.20;;;0.30;99.90;;;;;;5068490;28;20066;-61
2020/12/04 01:36:15;;;;;;;34.65;16.77;;;0.30;99.90;;;;;;5068437;28;20033;-57
2020/12/04 01:38:41;;;;;;;31.40;15.90;;;0.30;99.90;;;;;;5061583;28;20044;-58
2020/12/04 01:41:06;;;;;;;41.30;17.10;;;0.30;99.90;;;;;;5067899;28;20040;-60
2020/12/04 01:43:32;;;;;;;30.67;16.20;;;0.30;99.90;;;;;;5068257;28;20784;-60
2020/12/04 01:45:58;;;;;;;32.75;16.27;;;0.30;99.90;;;;;;5067587;28;20646;-61
2020/12/04 01:48:24;;;;;;;29.40;15.18;;;0.30;99.90;;;;;;5067742;28;20128;-59
2020/12/04 01:50:51;;;;;;;30.90;15.57;;;0.30;99.90;;;;;;5060791;28;20052;-60
2020/12/04 01:53:18;;;;;;;33.22;15.60;;;0.30;99.90;;;;;;5047814;28;20045;-60
2020/12/04 01:55:44;;;;;;;35.50;15.85;;;0.40;99.90;;;;;;5047754;28;20516;-58
2020/12/04 01:58:12;;;;;;;30.17;16.30;;;0.40;99.90;;;;;;5048113;28;20045;-59
2020/12/04 02:00:37;;;;;;;28.42;15.20;;;0.40;99.90;;;;;;5057034;28;20075;-55
2020/12/04 02:03:03;;;;;;;30.70;15.57;;;0.50;99.90;;;;;;5066862;28;20087;-59
2020/12/04 02:05:29;;;;;;;30.63;16.17;;;0.50;99.90;;;;;;5062637;28;20040;-59
2020/12/04 02:08:08;;;;;;;35.30;16.45;;;0.50;99.90;;;;;;5065806;28;20029;-61
2020/12/04 02:10:42;;;;;;;31.67;17.33;;;0.50;99.90;;;;;;5066450;28;20040;-61
2020/12/04 02:13:09;;;;;;;36.08;17.42;;;0.50;99.90;;;;;;5063962;28;20519;-58
2020/12/04 02:15:35;;;;;;;33.53;16.85;;;0.50;99.90;;;;;;5066351;28;20043;-58
2020/12/04 02:18:04;;;;;;;34.75;16.35;;;0.50;99.90;;;;;;5067385;28;20036;-60
2020/12/04 02:20:32;;;;;;;28.17;15.02;;;0.50;99.90;;;;;;5067073;28;20185;-59
2020/12/04 02:22:57;;;;;;;31.35;15.25;;;0.50;99.90;;;;;;5066632;28;20040;-59
2020/12/04 02:25:23;;;;;;;35.40;17.92;;;0.50;99.90;;;;;;5068425;28;20047;-60
2020/12/04 02:27:49;;;;;;;32.47;15.77;;;0.50;99.90;;;;;;5066743;28;20039;-60
2020/12/04 02:30:33;;;;;;;30.27;15.65;;;0.50;99.90;;;;;;5067214;28;20040;-61
2020/12/04 02:32:59;;;;;;;30.98;15.40;;;0.50;99.90;;;;;;5067649;28;20082;-61
2020/12/04 02:35:24;;;;;;;30.10;15.40;;;0.50;99.90;;;;;;5066953;28;20036;-58
2020/12/04 02:37:52;;;;;;;31.20;15.45;;;0.40;99.90;;;;;;5047858;28;20124;-59
2020/12/04 02:40:19;;;;;;;27.65;14.35;;;0.40;99.90;;;;;;5058723;28;20032;-61
2020/12/04 02:42:44;;;;;;;27.50;14.38;;;0.40;99.90;;;;;;5068397;28;20067;-56
2020/12/04 02:45:12;;;;;;;29.20;14.25;;;0.40;99.90;;;;;;5060116;28;20187;-60
2020/12/04 02:47:37;;;;;;;29.35;14.60;;;0.40;99.90;;;;;;5065632;28;20045;-59
2020/12/04 02:50:03;;;;;;;27.25;14.32;;;0.40;99.90;;;;;;5059876;28;20133;-59
2020/12/04 02:52:29;;;;;;;27.08;13.85;;;0.40;99.90;;;;;;5067409;28;20040;-58
2020/12/04 02:54:54;;;;;;;29.13;14.05;;;0.30;99.90;;;;;;5068234;28;20033;-59
2020/12/04 02:57:20;;;;;;;25.45;12.95;;;0.40;99.90;;;;;;5067454;28;20042;-61
2020/12/04 02:59:46;;;;;;;24.23;13.45;;;0.30;99.90;;;;;;5062110;28;20025;-58
2020/12/04 03:02:12;;;;;;;26.30;14.35;;;0.30;99.90;;;;;;5047101;28;20118;-56
2020/12/04 03:04:37;;;;;;;26.60;13.68;;;0.30;99.90;;;;;;5047757;28;20037;-59
2020/12/04 03:07:04;;;;;;;27.92;13.77;;;0.40;99.90;;;;;;5048822;28;20056;-60
2020/12/04 03:09:29;;;;;;;23.83;12.68;;;0.40;99.90;;;;;;5049894;28;20722;-61
2020/12/04 03:11:58;;;;;;;23.40;12.15;;;0.40;99.90;;;;;;5067257;28;20036;-61
2020/12/04 03:14:25;;;;;;;20.52;11.70;;;0.50;99.90;;;;;;5066848;28;20044;-58
2020/12/04 03:16:50;;;;;;;19.60;10.98;;;0.50;99.90;;;;;;5066382;28;20047;-58
2020/12/04 03:19:16;;;;;;;21.88;10.93;;;0.50;99.90;;;;;;5066826;28;20127;-59
2020/12/04 03:21:41;;;;;;;22.90;11.70;;;0.50;99.90;;;;;;5067788;28;20583;-61
2020/12/04 03:24:07;;;;;;;21.80;12.23;;;0.50;99.90;;;;;;5068015;28;20041;-60
2020/12/04 03:26:33;;;;;;;20.45;11.20;;;0.50;99.90;;;;;;5067436;28;20049;-60
2020/12/04 03:28:58;;;;;;;21.13;10.63;;;0.50;99.90;;;;;;5066583;28;20420;-61
2020/12/04 03:31:24;;;;;;;18.35;11.07;;;0.50;99.90;;;;;;5049146;28;20040;-60
2020/12/04 03:33:49;;;;;;;20.13;10.77;;;0.50;99.90;;;;;;5047640;28;20049;-58
2020/12/04 03:36:15;;;;;;;21.67;10.52;;;0.50;99.90;;;;;;5047397;28;20048;-59
2020/12/04 03:38:40;;;;;;;18.25;10.38;;;0.50;99.90;;;;;;5047247;28;20049;-61
2020/12/04 03:41:06;;;;;;;22.80;11.32;;;0.40;99.90;;;;;;5062355;28;20932;-61
2020/12/04 03:43:32;;;;;;;17.15;9.73;;;0.40;99.90;;;;;;5066478;28;20411;-60
2020/12/04 03:45:57;;;;;;;19.13;10.45;;;0.40;99.90;;;;;;5065794;28;20615;-60
2020/12/04 03:48:23;;;;;;;17.15;9.38;;;0.40;99.90;;;;;;5066245;28;20115;-60
2020/12/04 03:50:49;;;;;;;16.55;9.23;;;0.40;99.90;;;;;;5061948;28;20044;-58
2020/12/04 03:53:14;;;;;;;16.17;8.75;;;0.50;99.90;;;;;;5052558;28;20159;-61
2020/12/04 03:55:40;;;;;;;18.25;8.95;;;0.40;99.90;;;;;;5048765;28;20033;-61
2020/12/04 03:58:05;;;;;;;15.45;8.52;;;0.40;99.90;;;;;;5050330;28;20045;-60
2020/12/04 04:00:31;;;;;;;15.73;8.30;;;0.40;99.90;;;;;;5060377;28;20794;-61
2020/12/04 04:02:56;;;;;;;13.40;7.70;;;0.40;99.90;;;;;;5070115;28;20044;-60
2020/12/04 04:05:22;;;;;;;14.20;8.25;;;0.40;99.90;;;;;;5071134;28;20040;-60
2020/12/04 04:07:50;;;;;;;14.63;8.35;;;0.50;99.90;;;;;;5066720;28;20059;-60
2020/12/04 04:10:16;;;;;;;14.25;8.20;;;0.50;99.90;;;;;;5069565;28;20164;-61
2020/12/04 04:12:41;;;;;;;13.00;7.53;;;0.50;99.90;;;;;;5068976;28;20530;-61
2020/12/04 04:15:07;;;;;;;15.10;7.95;;;0.50;99.90;;;;;;5068724;28;20032;-60
2020/12/04 04:17:32;;;;;;;11.90;7.15;;;0.50;99.90;;;;;;5070808;28;20063;-59
2020/12/04 04:19:58;;;;;;;12.20;6.50;;;0.50;99.90;;;;;;5066029;28;20059;-59
2020/12/04 04:22:23;;;;;;;12.30;7.00;;;0.50;99.90;;;;;;5050956;28;20191;-61
2020/12/04 04:24:49;;;;;;;12.50;6.85;;;0.50;99.90;;;;;;5067105;28;20036;-60
2020/12/04 04:27:15;;;;;;;10.90;6.32;;;0.50;99.90;;;;;;5070444;28;20044;-58
2020/12/04 04:29:40;;;;;;;12.20;6.97;;;0.50;99.90;;;;;;5070378;28;20680;-61
2020/12/04 04:32:06;;;;;;;12.13;7.13;;;0.60;99.90;;;;;;5069787;28;20041;-61
2020/12/04 04:34:31;;;;;;;9.52;6.20;;;0.60;99.90;;;;;;5057919;28;20037;-60
2020/12/04 04:36:57;;;;;;;10.57;6.30;;;0.60;99.90;;;;;;5050211;28;20068;-61
2020/12/04 04:39:23;;;;;;;10.02;5.80;;;0.60;99.90;;;;;;5051133;28;20053;-60
2020/12/04 04:41:55;;;;;;;9.48;5.25;;;0.60;99.90;;;;;;5056472;28;20526;-61
2020/12/04 04:44:21;;;;;;;11.82;6.43;;;0.70;99.90;;;;;;5070143;28;20060;-61
2020/12/04 04:47:05;;;;;;;10.32;6.25;;;0.70;99.90;;;;;;5070174;28;20036;-58
2020/12/04 04:49:36;;;;;;;12.50;6.40;;;0.70;99.90;;;;;;5069995;28;20125;-60
2020/12/04 04:52:04;;;;;;;9.77;5.50;;;0.70;99.90;;;;;;5064125;28;20154;-60
2020/12/04 04:54:33;;;;;;;10.73;6.40;;;0.70;99.90;;;;;;5069816;28;20040;-59
2020/12/04 04:56:59;;;;;;;9.07;5.68;;;0.70;99.90;;;;;;5069654;28;20550;-60
2020/12/04 04:59:25;;;;;;;9.30;5.93;;;0.70;99.90;;;;;;5069594;28;20048;-60
2020/12/04 05:01:50;;;;;;;9.07;5.50;;;0.70;99.90;;;;;;5069323;28;20154;-60
2020/12/04 05:04:17;;;;;;;10.68;6.35;;;0.70;99.90;;;;;;5058251;28;20424;-60
2020/12/04 05:06:43;;;;;;;8.23;5.25;;;0.80;99.90;;;;;;5049583;28;20052;-60
2020/12/04 05:09:15;;;;;;;8.80;5.03;;;0.80;99.90;;;;;;5049405;28;20048;-59
2020/12/04 05:11:54;;;;;;;7.03;4.65;;;0.70;99.90;;;;;;5049774;28;20068;-60
2020/12/04 05:14:23;;;;;;;12.50;7.07;;;0.80;99.90;;;;;;5061342;28;20526;-60
2020/12/04 05:16:52;;;;;;;6.82;4.97;;;0.80;99.90;;;;;;5069374;28;20068;-61
2020/12/04 05:19:28;;;;;;;10.00;5.78;;;0.80;99.90;;;;;;5068120;28;20098;-60
2020/12/04 05:21:54;;;;;;;;;;;0.80;99.90;;;;;;5069680;28;20036;-59
2020/12/04 05:24:28;;;;;;;8.50;5.43;;;0.80;99.90;;;;;;5056526;28;19978;-59
2020/12/04 05:26:54;;;;;;;12.00;6.70;;;0.80;99.90;;;;;;5049536;28;20045;-60
2020/12/04 05:29:19;;;;;;;10.48;6.50;;;0.90;99.90;;;;;;5048565;28;20033;-59
2020/12/04 05:31:45;;;;;;;13.82;7.38;;;0.80;99.90;;;;;;5048120;28;20048;-57
2020/12/04 05:34:21;;;;;;;13.15;7.53;;;0.90;99.90;;;;;;5058237;28;20075;-57
2020/12/04 05:36:49;;;;;;;14.02;8.27;;;0.90;99.90;;;;;;5068818;28;20049;-57
2020/12/04 05:39:14;;;;;;;16.73;8.65;;;0.90;99.90;;;;;;5066273;28;20049;-58
2020/12/04 05:41:48;;;;;;;16.63;8.82;;;0.90;99.90;;;;;;5053100;28;20040;-56
2020/12/04 05:44:15;;;;;;;14.50;7.50;;;1.00;99.90;;;;;;5067648;28;20040;-57
2020/12/04 05:46:51;;;;;;;15.15;7.93;;;1.00;99.90;;;;;;5066708;28;20123;-59
2020/12/04 05:49:16;;;;;;;11.25;6.88;;;1.00;99.90;;;;;;5067511;28;20063;-57
2020/12/04 05:51:42;;;;;;;12.75;7.03;;;1.00;99.90;;;;;;5066075;28;20616;-58
2020/12/04 05:54:10;;;;;;;11.75;5.68;;;1.10;99.90;;;;;;5068838;28;20051;-59
2020/12/04 05:56:38;;;;;;;10.20;6.03;;;1.10;99.90;;;;;;5066769;28;20124;-57
2020/12/04 05:59:06;;;;;;;10.85;6.45;;;1.10;99.90;;;;;;5067956;28;20048;-60
2020/12/04 06:01:32;;;;;;;9.90;5.63;;;1.20;99.90;;;;;;5068214;28;20534;-60
2020/12/04 06:03:57;;;;;;;10.93;5.75;;;1.20;99.90;;;;;;5065569;28;20044;-59
2020/12/04 06:06:31;;;;;;;8.68;5.32;;;1.20;99.90;;;;;;5067469;28;20036;-59
2020/12/04 06:09:06;;;;;;;9.65;5.50;;;1.30;99.90;;;;;;5060470;28;20033;-61
2020/12/04 06:11:38;;;;;;;10.45;5.32;;;1.30;99.90;;;;;;5068245;28;20041;-57
2020/12/04 06:14:15;;;;;;;8.85;5.03;;;1.30;99.90;;;;;;5067594;28;20101;-55
2020/12/04 06:16:42;;;;;;;8.77;5.22;;;1.30;99.90;;;;;;5067569;28;20102;-59
2020/12/04 06:19:41;;;;;;;7.88;4.63;;;1.40;99.90;;;;;;5066977;28;20045;-53
2020/12/04 06:22:14;;;;;;;7.03;4.13;;;1.40;99.90;;;;;;5022178;28;20072;-59
2020/12/04 06:24:55;;;;;;;10.27;4.47;;;1.40;99.90;;;;;;5067192;28;20059;-56
2020/12/04 06:27:36;;;;;;;5.53;3.65;;;1.40;99.90;;;;;;5067401;28;20389;-59
2020/12/04 06:30:03;;;;;;;6.97;4.28;;;1.50;99.90;;;;;;5067127;28;20044;-51
2020/12/04 06:32:44;;;;;;;6.28;3.88;;;1.50;99.90;;;;;;5055212;28;20047;-50
2020/12/04 06:35:10;;;;;;;5.72;3.35;;;1.50;99.90;;;;;;5047514;28;20072;-56
2020/12/04 06:37:44;;;;;;;5.45;3.13;;;1.50;99.90;;;;;;5047593;28;20445;-54
2020/12/04 06:40:26;;;;;;;5.32;3.05;;;1.50;99.90;;;;;;5047342;28;20457;-52
2020/12/04 06:42:57;;;;;;;4.93;2.80;;;1.50;99.90;;;;;;5062399;28;20041;-57
2020/12/04 06:45:23;;;;;;;4.28;2.63;;;1.60;99.90;;;;;;5066556;28;20127;-54
2020/12/04 06:48:18;;;;;;;5.32;3.03;;;1.50;99.90;;;;;;5066149;28;20124;-54
2020/12/04 06:50:48;;;;;;;3.75;2.38;;;1.60;99.90;;;;;;5065720;28;20044;-52
2020/12/04 06:53:15;;;;;;;3.58;2.13;;;1.60;99.90;;;;;;5062676;28;20033;-57
2020/12/04 06:55:41;;;;;;;2.33;1.60;;;1.60;99.90;;;;;;5066591;28;20040;-57
2020/12/04 06:58:07;;;;;;;3.92;2.17;;;1.60;99.90;;;;;;5067467;28;20036;-58
2020/12/04 07:00:34;;;;;;;3.03;1.92;;;1.60;99.90;;;;;;5062604;28;20438;-56
2020/12/04 07:03:02;;;;;;;2.72;1.90;;;1.60;99.90;;;;;;5064862;28;20120;-53
2020/12/04 07:05:29;;;;;;;3.30;1.83;;;1.60;99.90;;;;;;5066349;28;20044;-57
2020/12/04 07:08:05;;;;;;;2.35;1.60;;;1.60;99.90;;;;;;5048512;28;20413;-57
2020/12/04 07:10:32;;;;;;;3.45;2.10;;;1.70;99.90;;;;;;5067169;28;20049;-56
2020/12/04 07:13:04;;;;;;;3.00;2.10;;;1.70;99.90;;;;;;5063967;28;20094;-56
2020/12/04 07:15:31;;;;;;;3.83;2.10;;;1.70;99.90;;;;;;5065093;28;21284;-53
2020/12/04 07:17:57;;;;;;;4.47;2.75;;;1.70;99.90;;;;;;5065484;28;20086;-52
2020/12/04 07:20:33;;;;;;;4.43;2.17;;;1.70;99.90;;;;;;5064091;28;20036;-52
2020/12/04 07:22:59;;;;;;;4.40;2.67;;;1.70;99.90;;;;;;5045793;28;20055;-57
2020/12/04 07:25:26;;;;;;;3.88;2.03;;;1.70;99.90;;;;;;5048460;28;20148;-58
2020/12/04 07:27:52;;;;;;;24.25;5.07;;;1.70;99.90;;;;;;5049066;28;20323;-54
2020/12/04 07:30:18;;;;;;;6.22;3.03;;;1.80;99.90;;;;;;5050153;28;20040;-57
2020/12/04 07:32:51;;;;;;;7.00;4.00;;;1.80;99.90;;;;;;5050966;28;20063;-56
2020/12/04 07:35:18;;;;;;;17.55;3.85;;;1.90;99.90;;;;;;5058985;28;20538;-57
2020/12/04 07:37:44;;;;;;;6.80;3.47;;;1.90;99.90;;;;;;5069767;28;20078;-56
2020/12/04 07:40:11;;;;;;;46.60;6.90;;;1.90;99.90;;;;;;5070663;28;20040;-54
2020/12/04 07:42:37;;;;;;;107.47;10.85;;;1.90;99.90;;;;;;5070560;28;20068;-57
2020/12/04 07:45:03;;;;;;;29.02;4.53;;;1.90;99.90;;;;;;5071254;28;20086;-57
2020/12/04 07:47:28;;;;;;;6.75;4.05;;;1.90;99.90;;;;;;5069999;28;20383;-56
2020/12/04 07:49:57;;;;;;;36.30;5.47;;;1.90;99.90;;;;;;5068232;28;20040;-58
2020/12/04 07:52:33;;;;;;;14.85;4.07;;;1.90;99.90;;;;;;5052256;28;20033;-60
2020/12/04 07:55:06;;;;;;;57.95;7.57;;;2.00;99.90;;;;;;5050543;28;20064;-55
2020/12/04 07:57:55;;;;;;;33.63;5.25;;;2.00;99.90;;;;;;5050289;28;20041;-58
2020/12/04 08:00:21;;;;;;;6.32;4.18;;;2.10;99.90;;;;;;5049881;28;20524;-52
2020/12/04 08:02:47;;;;;;;6.78;3.90;;;2.10;99.90;;;;;;5052546;28;20037;-57
2020/12/04 08:05:20;;;;;;;8.18;4.25;;;2.10;99.90;;;;;;5070927;28;20393;-57
2020/12/04 08:07:51;;;;;;;9.43;4.50;;;2.10;99.90;;;;;;5067284;28;20610;-57
2020/12/04 08:10:17;;;;;;;8.15;4.90;;;2.10;99.90;;;;;;5068972;28;20032;-59
2020/12/04 08:12:44;;;;;;;8.60;5.00;;;2.10;99.90;;;;;;5066567;28;20029;-59
2020/12/04 08:15:11;;;;;;;8.82;5.43;;;2.10;99.90;;;;;;5064616;28;20612;-57
2020/12/04 08:17:37;;;;;;;8.40;4.75;;;2.10;99.90;;;;;;5069686;28;20531;-60
2020/12/04 08:20:13;;;;;;;7.93;5.28;;;2.10;99.90;;;;;;5069703;28;20036;-59
2020/12/04 08:22:38;;;;;;;10.70;6.38;;;2.10;99.90;;;;;;5067876;28;20040;-59
2020/12/04 08:25:06;;;;;;;8.45;5.30;;;2.20;99.90;;;;;;5054820;28;20044;-58
2020/12/04 08:27:35;;;;;;;11.13;5.97;;;2.20;99.90;;;;;;5070000;28;20547;-57
2020/12/04 08:30:15;;;;;;;10.70;6.60;;;2.20;99.90;;;;;;5069934;28;20074;-60
2020/12/04 08:32:43;;;;;;;10.65;6.05;;;2.20;99.90;;;;;;5063879;28;20709;-58
2020/12/04 08:35:15;;;;;;;10.73;6.25;;;2.30;99.90;;;;;;5068253;28;20044;-57
2020/12/04 08:37:41;;;;;;;12.13;6.75;;;2.30;99.90;;;;;;5069835;28;20048;-59
2020/12/04 08:40:23;;;;;;;10.18;6.47;;;2.30;99.90;;;;;;5069276;28;20040;-58
2020/12/04 08:42:49;;;;;;;11.20;6.43;;;2.30;99.90;;;;;;5069919;28;20036;-58
2020/12/04 08:45:15;;;;;;;11.00;6.15;;;2.30;99.90;;;;;;5059925;28;20041;-57
2020/12/04 08:47:44;;;;;;;10.52;6.80;;;2.30;99.90;;;;;;5051198;28;20120;-59
2020/12/04 08:50:18;;;;;;;10.75;5.35;;;2.30;99.90;;;;;;5070092;28;20040;-58
2020/12/04 08:52:46;;;;;;;7.82;5.32;;;2.40;99.90;;;;;;5049755;28;20590;-54
2020/12/04 08:55:23;;;;;;;7.93;4.90;;;2.40;99.90;;;;;;5064775;28;20102;-57
2020/12/04 08:57:51;;;;;;;8.05;4.80;;;2.50;99.90;;;;;;5053851;28;20036;-51
2020/12/04 09:00:20;;;;;;;8.05;5.10;;;2.50;99.90;;;;;;5065550;28;20040;-55
2020/12/04 09:02:46;;;;;;;10.05;5.95;;;2.50;99.90;;;;;;5068961;28;20039;-60
2020/12/04 09:05:17;;;;;;;8.23;5.20;;;2.60;99.90;;;;;;5068861;28;20045;-57
2020/12/04 09:07:43;;;;;;;8.95;4.80;;;2.60;99.90;;;;;;5057110;28;20033;-58
2020/12/04 09:10:12;;;;;;;10.60;5.95;;;2.60;99.90;;;;;;5048920;28;20044;-53
2020/12/04 09:12:39;;;;;;;8.15;5.40;;;2.60;99.90;;;;;;5049226;28;20037;-57
2020/12/04 09:15:07;;;;;;;8.85;5.07;;;2.60;99.90;;;;;;5049715;28;20041;-56
2020/12/04 09:17:33;;;;;;;10.93;4.75;;;2.60;99.90;;;;;;5032389;28;20045;-60
2020/12/04 09:19:59;;;;;;;13.15;6.57;;;2.60;99.90;;;;;;5049055;28;20128;-60
2020/12/04 09:22:25;;;;;;;13.73;6.18;;;2.60;99.90;;;;;;5049526;28;20116;-59
2020/12/04 09:24:50;;;;;;;9.43;5.57;;;2.50;99.90;;;;;;5047722;28;20057;-57
2020/12/04 09:27:16;;;;;;;10.00;5.35;;;2.50;99.90;;;;;;5047004;28;20045;-55
2020/12/04 09:29:42;;;;;;;10.02;5.85;;;2.50;99.90;;;;;;5032092;28;20033;-54
2020/12/04 09:32:14;;;;;;;10.00;5.03;;;2.40;99.90;;;;;;5063543;28;20040;-58
2020/12/04 09:34:41;;;;;;;10.52;6.03;;;2.50;99.90;;;;;;5068417;28;20515;-57
2020/12/04 09:37:28;;;;;;;11.77;5.53;;;2.50;99.90;;;;;;5068259;28;20067;-57
2020/12/04 09:39:59;;;;;;;15.07;9.57;;;2.50;99.90;;;;;;5048333;28;20051;-56
2020/12/04 09:42:26;;;;;;;11.07;6.90;;;2.50;99.90;;;;;;5059132;28;20048;-56
2020/12/04 09:44:52;;;;;;;10.23;6.20;;;2.50;99.90;;;;;;5068514;28;20050;-58
2020/12/04 09:47:18;;;;;;;11.35;6.30;;;2.50;99.90;;;;;;5066019;28;20036;-56
2020/12/04 09:49:45;;;;;;;9.95;5.68;;;2.50;99.90;;;;;;5049930;28;20083;-57
2020/12/04 09:52:12;;;;;;;8.70;5.35;;;2.60;99.90;;;;;;5063858;28;20106;-58
2020/12/04 09:54:40;;;;;;;8.90;5.65;;;2.60;99.90;;;;;;5066992;28;20040;-57
2020/12/04 09:57:08;;;;;;;7.82;4.95;;;2.60;99.90;;;;;;5066001;28;20044;-58
2020/12/04 09:59:34;;;;;;;12.27;6.28;;;2.60;99.90;;;;;;5054683;28;20041;-57
2020/12/04 10:02:01;;;;;;;12.02;6.65;;;2.60;99.90;;;;;;5046659;28;20048;-56
2020/12/04 10:04:27;;;;;;;15.00;6.75;;;2.60;99.90;;;;;;5047440;28;20045;-53
2020/12/04 10:06:53;;;;;;;10.35;6.20;;;2.70;99.90;;;;;;5061162;28;20622;-56
2020/12/04 10:09:20;;;;;;;10.68;5.72;;;2.80;99.90;;;;;;5059737;28;20064;-55
2020/12/04 10:11:46;;;;;;;13.45;7.70;;;2.80;99.90;;;;;;5045999;28;20083;-56
2020/12/04 10:14:13;;;;;;;9.00;5.60;;;2.80;99.90;;;;;;5046264;28;20041;-57
2020/12/04 10:16:39;;;;;;;9.75;5.55;;;2.80;99.90;;;;;;5050950;28;20509;-55
2020/12/04 10:19:05;;;;;;;10.20;5.15;;;2.80;99.90;;;;;;5061336;28;20043;-54
2020/12/04 10:21:35;;;;;;;11.55;6.20;;;2.80;99.90;;;;;;5056627;28;20039;-54
2020/12/04 10:24:01;;;;;;;8.43;5.07;;;2.80;99.90;;;;;;5083606;28;20048;-56
2020/12/04 10:26:27;;;;;;;12.70;7.53;;;2.80;99.90;;;;;;5066445;28;20090;-57
2020/12/04 10:28:53;;;;;;;8.50;5.38;;;2.80;99.90;;;;;;5066314;28;20036;-56
2020/12/04 10:31:18;;;;;;;8.07;5.10;;;2.90;99.90;;;;;;5047135;28;20033;-57
2020/12/04 10:33:44;;;;;;;11.18;5.50;;;3.00;99.90;;;;;;5048094;28;20444;-56
2020/12/04 10:36:09;;;;;;;7.45;4.07;;;3.00;99.90;;;;;;5046087;28;20067;-57
2020/12/04 10:38:35;;;;;;;11.52;8.10;;;3.10;99.90;;;;;;5046408;28;20045;-55
2020/12/04 10:41:00;;;;;;;10.40;5.32;;;3.10;99.90;;;;;;5045772;28;20044;-55
2020/12/04 10:43:26;;;;;;;7.95;4.65;;;3.20;99.90;;;;;;5065066;28;20134;-56
2020/12/04 10:45:53;;;;;;;7.80;4.72;;;3.30;99.90;;;;;;5065069;28;20036;-55
2020/12/04 10:48:19;;;;;;;8.50;4.15;;;3.30;99.90;;;;;;5064579;28;20059;-53
2020/12/04 10:50:45;;;;;;;16.38;8.93;;;3.40;99.90;;;;;;5073920;28;20039;-53
2020/12/04 10:53:12;;;;;;;9.85;5.55;;;3.50;99.90;;;;;;5065598;28;20105;-56
2020/12/04 10:55:37;;;;;;;6.55;4.15;;;3.50;99.90;;;;;;5069272;28;20028;-54
2020/12/04 10:58:03;;;;;;;7.60;4.57;;;3.60;99.90;;;;;;5064580;28;20055;-52
2020/12/04 11:00:29;;;;;;;8.95;4.53;;;3.60;99.90;;;;;;5063882;28;20028;-55
2020/12/04 11:03:08;;;;;;;7.65;4.22;;;3.60;99.90;;;;;;5065136;28;20381;-56
2020/12/04 11:05:41;;;;;;;6.72;4.60;;;3.60;99.90;;;;;;5065283;28;20075;-56
2020/12/04 11:08:08;;;;;;;6.70;4.00;;;3.60;99.90;;;;;;5064337;28;20040;-59
2020/12/04 11:10:34;;;;;;;8.05;4.65;;;3.60;99.90;;;;;;5058476;28;20047;-58
2020/12/04 11:13:00;;;;;;;8.00;4.93;;;3.70;99.90;;;;;;5062282;28;20412;-54
2020/12/04 11:15:26;;;;;;;9.00;4.53;;;3.70;99.90;;;;;;5062946;28;20123;-56
2020/12/04 11:17:52;;;;;;;9.93;4.68;;;3.70;99.90;;;;;;5065220;28;20048;-53
2020/12/04 11:20:20;;;;;;;5.68;3.55;;;3.90;99.90;;;;;;5060389;28;20029;-60
2020/12/04 11:22:46;;;;;;;7.55;4.25;;;3.90;99.90;;;;;;5045258;28;20484;-54
2020/12/04 11:25:11;;;;;;;6.88;3.88;;;4.00;99.90;;;;;;5045426;28;20037;-58
2020/12/04 11:27:44;;;;;;;;;;;4.00;99.90;;;;;;5045928;28;20448;-58
2020/12/04 11:30:15;;;;;;;6.80;3.78;;;4.00;99.90;;;;;;5045570;28;19917;-53
2020/12/04 11:32:42;;;;;;;8.60;4.55;;;3.90;99.90;;;;;;5045710;28;20049;-54
2020/12/04 11:35:10;;;;;;;9.57;4.60;;;3.80;99.90;;;;;;5049176;28;20043;-53
2020/12/04 11:37:35;;;;;;;11.13;4.53;;;3.80;99.90;;;;;;5064659;28;20040;-58
2020/12/04 11:40:07;;;;;;;8.13;4.68;;;3.70;99.90;;;;;;5064557;28;20041;-57
2020/12/04 11:42:32;;;;;;;9.02;4.78;;;3.70;99.90;;;;;;5064797;28;20397;-63
2020/12/04 11:44:58;;;;;;;8.32;4.55;;;3.70;99.90;;;;;;5065698;28;20075;-60
2020/12/04 11:47:27;;;;;;;8.32;4.57;;;3.70;99.90;;;;;;5064206;28;20508;-56
2020/12/04 11:49:54;;;;;;;7.53;4.13;;;3.80;99.90;;;;;;5045022;28;20098;-59
2020/12/04 11:52:20;;;;;;;9.65;4.38;;;3.90;99.90;;;;;;5049422;28;20037;-56
2020/12/04 11:54:46;;;;;;;7.47;3.90;;;4.00;99.90;;;;;;5045565;28;20128;-58
2020/12/04 11:57:12;;;;;;;15.57;8.30;;;4.00;99.90;;;;;;5045945;28;20041;-60
2020/12/04 11:59:38;;;;;;;8.15;5.53;;;4.00;99.90;;;;;;5053668;28;20044;-59
2020/12/04 12:02:04;;;;;;;9.35;5.10;;;3.90;99.90;;;;;;5062510;28;20101;-60
2020/12/04 12:04:30;;;;;;;8.80;5.32;;;3.80;99.90;;;;;;5054778;28;20119;-61
2020/12/04 12:06:55;;;;;;;10.60;5.93;;;3.80;99.90;;;;;;5062476;28;20135;-59
2020/12/04 12:09:21;;;;;;;;;;;3.80;99.90;;;;;;5061291;28;20564;-61
2020/12/04 12:11:47;;;;;;;9.63;5.32;;;3.80;99.90;;;;;;5059086;28;19917;-59
2020/12/04 12:14:12;;;;;;;;;;;3.90;99.90;;;;;;5065154;28;20528;-62
2020/12/04 12:16:37;;;;;;;9.98;5.95;;;3.90;99.90;;;;;;5067766;28;19917;-61
2020/12/04 12:19:03;;;;;;;10.20;5.25;;;3.90;99.90;;;;;;5067515;28;20040;-60
2020/12/04 12:21:29;;;;;;;8.20;4.85;;;3.90;99.90;;;;;;5049600;28;20045;-60
2020/12/04 12:23:54;;;;;;;16.90;9.93;;;3.90;99.90;;;;;;5049895;28;20065;-62
2020/12/04 12:26:20;;;;;;;13.95;7.88;;;3.80;99.90;;;;;;5062071;28;20064;-59
2020/12/04 12:28:46;;;;;;;10.55;6.25;;;3.80;99.90;;;;;;5047558;28;20041;-56
2020/12/04 12:31:12;;;;;;;10.35;6.20;;;3.80;99.90;;;;;;5047174;28;20037;-58
2020/12/04 12:33:38;;;;;;;10.27;5.95;;;3.80;99.90;;;;;;5047943;28;20045;-58
2020/12/04 12:36:04;;;;;;;12.10;6.57;;;3.80;99.90;;;;;;5049120;28;20543;-62
2020/12/04 12:38:29;;;;;;;13.57;6.90;;;3.80;99.90;;;;;;5047322;28;20041;-61
2020/12/04 12:40:55;;;;;;;14.45;7.18;;;3.80;99.90;;;;;;5047761;28;20040;-59
2020/12/04 12:43:21;;;;;;;10.88;6.32;;;3.80;99.90;;;;;;5065576;28;20389;-59
2020/12/04 12:45:46;;;;;;;13.50;7.53;;;3.90;99.90;;;;;;5057800;28;20033;-58
2020/12/04 12:48:12;;;;;;;;;;;3.90;99.90;;;;;;5060590;28;20036;-60
2020/12/04 12:50:37;;;;;;;12.05;7.03;;;3.90;99.90;;;;;;5051550;28;19951;-59
2020/12/04 12:53:03;;;;;;;10.52;6.35;;;4.00;99.90;;;;;;5056377;28;20469;-57